Time;durP1;ratioP1;P1;durP2;ratioP2;P2;SDS_P1;SDS_P2;PMS_P1;PMS_P2;Temp;Humidity;BMP_temperature;BMP_pressure;BME280_temperature;BME280_humidity;BME280_pressure;Samples;Min_cycle;Max_cycle;Signal;HPM_P1;HPM_P2
2021/03/12 00:13:20;;;;;;;6.97;1.57;;;;;;;;;;4286039;33;20158;-81
2021/03/12 00:15:45;;;;;;;12.23;2.10;;;;;;;;;;4307501;33;20168;-81
2021/03/12 00:24:38;;;;;;;10.30;1.80;;;;;;;;;;4358983;32;20192;-81
2021/03/12 00:36:46;;;;;;;;;;;;;;;;;;;;;
2021/03/12 00:44:08;;;;;;;;;;;;;;;;;;;;;
2021/03/12 00:48:58;;;;;;;6.40;1.50;;;;;;;;;;4241652;33;20240;-80
2021/03/12 00:51:46;;;;;;;10.30;1.97;;;;;;;;;;4295285;33;20180;-82
2021/03/12 00:55:18;;;;;;;17.43;2.47;;;;;;;;;;4376710;32;20257;-81
2021/03/12 00:58:02;;;;;;;17.17;2.30;;;;;;;;;;4319017;32;20192;-80
2021/03/12 01:03:36;;;;;;;12.43;2.43;;;;;;;;;;4299624;33;20180;-81
2021/03/12 01:06:30;;;;;;;;;;;;;;;;;;;;;
2021/03/12 01:09:35;;;;;;;17.83;2.30;;;;;;;;;;4311979;33;20172;-81
2021/03/12 01:12:12;;;;;;;11.87;2.33;;;;;;;;;;4328562;33;20179;-81
2021/03/12 01:17:43;;;;;;;14.33;2.50;;;;;;;;;;4299816;33;20180;-81
2021/03/12 01:20:40;;;;;;;;;;;;;;;;;;;;;
2021/03/12 01:26:09;;;;;;;13.47;2.60;;;;;;;;;;4283483;33;20183;-81
2021/03/12 01:38:32;;;;;;;;;;;;;;;;;;;;;
2021/03/12 01:44:28;;;;;;;;;;;;;;;;;;;;;
2021/03/12 01:53:28;;;;;;;;;;;;;;;;;;;;;
2021/03/12 01:56:13;;;;;;;9.47;2.20;;;;;;;;;;4257055;33;20207;-80
2021/03/12 01:58:47;;;;;;;12.97;2.37;;;;;;;;;;4299881;33;20156;-81
2021/03/12 02:02:04;;;;;;;14.73;2.30;;;;;;;;;;4299948;32;20261;-81
2021/03/12 02:07:27;;;;;;;14.87;2.20;;;;;;;;;;4287434;33;20179;-81
2021/03/12 02:09:52;;;;;;;12.17;2.27;;;;;;;;;;4288921;33;20257;-81
2021/03/12 02:22:07;;;;;;;13.53;2.10;;;;;;;;;;4273314;33;20191;-81
2021/03/12 02:25:50;;;;;;;9.87;2.30;;;;;;;;;;4257671;33;20207;-81
2021/03/12 02:31:02;;;;;;;13.30;2.20;;;;;;;;;;4244765;33;20198;-81
2021/03/12 02:37:00;;;;;;;19.63;2.80;;;;;;;;;;4188723;34;20374;-82
2021/03/12 02:42:41;;;;;;;;;;;;;;;;;;;;;
2021/03/12 02:45:35;;;;;;;;;;;;;;;;;;;;;
2021/03/12 02:48:37;;;;;;;13.60;2.20;;;;;;;;;;4173322;34;20221;-82
2021/03/12 02:54:03;;;;;;;14.07;2.10;;;;;;;;;;4253132;33;20692;-81
2021/03/12 03:03:06;;;;;;;11.37;2.10;;;;;;;;;;4373295;32;20574;-81
2021/03/12 03:05:44;;;;;;;;;;;;;;;;;;;;;
2021/03/12 03:17:35;;;;;;;17.30;2.03;;;;;;;;;;4317785;33;20225;-81
2021/03/12 03:30:57;;;;;;;13.63;1.90;;;;;;;;;;4365391;32;20246;-81
2021/03/12 03:48:57;;;;;;;14.30;2.67;;;;;;;;;;4269682;33;20608;-82
2021/03/12 03:55:17;;;;;;;;;;;;;;;;;;;;;
2021/03/12 03:57:45;;;;;;;12.70;1.93;;;;;;;;;;4229630;34;20150;-82
2021/03/12 04:00:16;;;;;;;10.27;1.83;;;;;;;;;;4241376;33;20212;-82
2021/03/12 04:12:24;;;;;;;;;;;;;;;;;;;;;
2021/03/12 04:18:06;;;;;;;12.37;1.90;;;;;;;;;;4300628;33;20695;-81
2021/03/12 04:27:12;;;;;;;12.90;1.90;;;;;;;;;;4285836;33;20241;-82
2021/03/12 04:29:51;;;;;;;;;;;;;;;;;;;;;
2021/03/12 04:35:42;;;;;;;14.70;2.10;;;;;;;;;;4233781;33;20613;-81
2021/03/12 04:38:15;;;;;;;11.60;1.93;;;;;;;;;;4243344;33;20551;-82
2021/03/12 04:41:15;;;;;;;12.53;1.90;;;;;;;;;;4243311;33;20184;-82
2021/03/12 04:47:05;;;;;;;12.17;2.17;;;;;;;;;;4187123;34;20178;-82
2021/03/12 04:49:59;;;;;;;;;;;;;;;;;;;;;
2021/03/12 04:58:12;;;;;;;15.33;2.03;;;;;;;;;;4215993;34;20185;-82
2021/03/12 05:00:57;;;;;;;11.53;2.17;;;;;;;;;;4278949;33;20153;-82
2021/03/12 05:03:33;;;;;;;;;;;;;;;;;;;;;
2021/03/12 05:11:49;;;;;;;9.43;1.90;;;;;;;;;;4316369;32;20177;-83
2021/03/12 05:14:22;;;;;;;12.50;2.30;;;;;;;;;;4376248;32;20526;-81
2021/03/12 05:17:07;;;;;;;16.77;2.40;;;;;;;;;;4375889;32;20131;-81
2021/03/12 05:19:35;;;;;;;14.37;2.63;;;;;;;;;;4375333;32;20155;-81
2021/03/12 05:22:00;;;;;;;12.97;2.20;;;;;;;;;;4375472;32;20161;-81
2021/03/12 05:24:36;;;;;;;15.23;2.00;;;;;;;;;;4375322;32;20207;-81
2021/03/12 05:27:01;;;;;;;15.10;2.40;;;;;;;;;;4375187;32;20154;-81
2021/03/12 05:32:58;;;;;;;14.30;2.30;;;;;;;;;;4379572;32;20648;-81
2021/03/12 05:39:08;;;;;;;12.30;2.20;;;;;;;;;;4376652;32;20492;-82
2021/03/12 05:42:02;;;;;;;14.13;2.17;;;;;;;;;;4319450;33;20242;-82
2021/03/12 05:45:15;;;;;;;11.87;2.40;;;;;;;;;;4319235;33;20182;-81
2021/03/12 05:51:02;;;;;;;;;;;;;;;;;;;;;
2021/03/12 05:53:28;;;;;;;10.57;1.90;;;;;;;;;;4334525;33;20163;-82
2021/03/12 05:56:19;;;;;;;16.73;2.00;;;;;;;;;;4346063;33;20583;-82
2021/03/12 05:58:47;;;;;;;16.27;2.50;;;;;;;;;;4359446;33;20162;-82
2021/03/12 06:01:31;;;;;;;12.10;1.70;;;;;;;;;;4365927;32;20161;-81
2021/03/12 06:03:57;;;;;;;15.30;2.37;;;;;;;;;;4392884;32;20149;-81
2021/03/12 06:12:54;;;;;;;9.27;2.00;;;;;;;;;;4377883;32;20214;-81
2021/03/12 06:15:54;;;;;;;15.70;2.60;;;;;;;;;;4316482;33;20202;-81
2021/03/12 06:18:26;;;;;;;13.30;2.53;;;;;;;;;;4305860;33;20176;-80
2021/03/12 06:21:03;;;;;;;20.77;2.40;;;;;;;;;;4362710;32;20150;-81
2021/03/12 06:23:51;;;;;;;17.80;2.40;;;;;;;;;;4361347;32;20173;-81
2021/03/12 06:29:44;;;;;;;16.43;2.33;;;;;;;;;;4362757;32;20201;-81
2021/03/12 06:32:22;;;;;;;17.23;2.60;;;;;;;;;;4380376;32;20255;-81
2021/03/12 06:35:02;;;;;;;12.53;2.17;;;;;;;;;;4390476;32;20192;-81
2021/03/12 06:37:49;;;;;;;15.20;2.53;;;;;;;;;;4391724;32;20188;-81
2021/03/12 06:40:20;;;;;;;16.30;3.13;;;;;;;;;;4379045;32;20173;-81
2021/03/12 06:43:00;;;;;;;13.73;2.77;;;;;;;;;;4391731;32;20172;-81
2021/03/12 06:45:26;;;;;;;11.43;2.47;;;;;;;;;;4386994;32;20146;-82
2021/03/12 06:48:17;;;;;;;16.20;2.90;;;;;;;;;;4363270;32;20666;-81
2021/03/12 06:51:11;;;;;;;14.30;2.90;;;;;;;;;;4377171;32;20135;-81
2021/03/12 06:53:40;;;;;;;20.43;3.30;;;;;;;;;;4376745;32;20162;-81
2021/03/12 06:59:50;;;;;;;16.53;3.10;;;;;;;;;;4370295;32;20163;-81
2021/03/12 07:02:28;;;;;;;15.67;2.80;;;;;;;;;;4376979;32;20202;-81
2021/03/12 07:04:54;;;;;;;22.33;3.00;;;;;;;;;;4362305;32;20127;-81
2021/03/12 07:07:49;;;;;;;18.70;3.77;;;;;;;;;;4348210;33;20525;-81
2021/03/12 07:10:15;;;;;;;16.33;3.20;;;;;;;;;;4361638;32;20166;-81
2021/03/12 07:12:53;;;;;;;22.27;3.00;;;;;;;;;;4362041;32;20163;-81
2021/03/12 07:18:13;;;;;;;14.80;2.90;;;;;;;;;;4343766;33;20256;-83
2021/03/12 07:20:43;;;;;;;18.23;2.87;;;;;;;;;;4361802;32;20495;-81
2021/03/12 07:23:29;;;;;;;16.53;3.77;;;;;;;;;;4368683;32;20163;-78
2021/03/12 07:26:18;;;;;;;21.40;3.07;;;;;;;;;;4386462;32;20141;-79
2021/03/12 07:28:45;;;;;;;21.17;3.23;;;;;;;;;;4391679;32;20154;-80
2021/03/12 07:31:33;;;;;;;20.50;3.40;;;;;;;;;;4391591;32;20470;-79
2021/03/12 07:33:59;;;;;;;23.40;3.53;;;;;;;;;;4391586;32;20155;-79
2021/03/12 07:36:26;;;;;;;16.60;2.83;;;;;;;;;;4391504;32;20138;-79
2021/03/12 07:39:00;;;;;;;19.63;2.80;;;;;;;;;;4391188;32;20181;-79
2021/03/12 07:41:26;;;;;;;20.93;2.80;;;;;;;;;;4391898;32;20565;-79
2021/03/12 07:43:52;;;;;;;19.03;2.83;;;;;;;;;;4379503;32;20155;-79
2021/03/12 07:46:27;;;;;;;;;;;;;;;;;;;;;
2021/03/12 07:48:56;;;;;;;19.43;3.10;;;;;;;;;;4375631;32;20142;-78
2021/03/12 07:51:21;;;;;;;15.47;2.40;;;;;;;;;;4376105;32;20139;-80
2021/03/12 07:53:50;;;;;;;13.27;3.00;;;;;;;;;;4376319;32;20149;-81
2021/03/12 07:56:46;;;;;;;17.43;3.00;;;;;;;;;;4388855;32;20154;-79
2021/03/12 07:59:33;;;;;;;22.50;2.93;;;;;;;;;;4377401;32;20166;-80
2021/03/12 08:05:24;;;;;;;;;;;;;;;;;;;;;
2021/03/12 08:07:50;;;;;;;14.40;2.50;;;;;;;;;;4343907;33;20159;-78
2021/03/12 08:10:19;;;;;;;11.17;2.53;;;;;;;;;;4350282;32;20185;-78
2021/03/12 08:12:48;;;;;;;18.90;3.50;;;;;;;;;;4377227;32;20126;-78
2021/03/12 08:15:35;;;;;;;20.37;2.80;;;;;;;;;;4359181;33;20147;-78
2021/03/12 08:18:32;;;;;;;21.27;3.53;;;;;;;;;;4358479;32;20150;-79
2021/03/12 08:21:22;;;;;;;19.47;3.13;;;;;;;;;;4329440;33;20140;-77
2021/03/12 08:25:06;;;;;;;18.73;3.23;;;;;;;;;;4358321;32;20213;-78
2021/03/12 08:27:36;;;;;;;20.67;3.20;;;;;;;;;;4355143;33;20202;-78
2021/03/12 08:30:10;;;;;;;20.97;3.33;;;;;;;;;;4346800;33;20239;-78
2021/03/12 08:32:44;;;;;;;20.53;3.50;;;;;;;;;;4355038;32;20474;-78
2021/03/12 08:35:31;;;;;;;17.23;3.23;;;;;;;;;;4356244;33;20147;-78
2021/03/12 08:38:00;;;;;;;16.83;3.23;;;;;;;;;;4345685;33;20167;-78
2021/03/12 08:40:26;;;;;;;14.20;2.50;;;;;;;;;;4346004;33;20163;-78
2021/03/12 08:43:05;;;;;;;17.90;3.50;;;;;;;;;;4357995;32;20147;-79
2021/03/12 08:45:33;;;;;;;20.37;3.67;;;;;;;;;;4361949;32;20158;-80
2021/03/12 08:48:03;;;;;;;15.83;3.07;;;;;;;;;;4375058;32;20139;-80
2021/03/12 08:50:35;;;;;;;21.50;4.07;;;;;;;;;;4361419;32;20155;-79
2021/03/12 08:53:13;;;;;;;28.00;4.40;;;;;;;;;;4375509;32;20209;-80
2021/03/12 08:55:42;;;;;;;23.87;3.60;;;;;;;;;;4361780;32;20151;-79
2021/03/12 08:58:38;;;;;;;19.97;3.53;;;;;;;;;;4374958;32;20159;-79
2021/03/12 09:01:48;;;;;;;22.20;3.87;;;;;;;;;;4375075;32;20139;-80
2021/03/12 09:07:30;;;;;;;24.87;4.47;;;;;;;;;;4314035;33;20580;-80
2021/03/12 09:09:55;;;;;;;21.93;3.97;;;;;;;;;;4339951;33;20170;-80
2021/03/12 09:12:21;;;;;;;16.00;3.47;;;;;;;;;;4346168;33;20155;-79
2021/03/12 09:14:48;;;;;;;20.70;3.53;;;;;;;;;;4359450;32;20155;-79
2021/03/12 09:17:16;;;;;;;17.93;3.40;;;;;;;;;;4375049;32;20134;-80
2021/03/12 09:19:42;;;;;;;15.07;3.37;;;;;;;;;;4361152;32;20186;-79
2021/03/12 09:22:07;;;;;;;24.50;3.60;;;;;;;;;;4360967;32;20159;-79
2021/03/12 09:24:32;;;;;;;21.80;3.80;;;;;;;;;;4361182;32;20151;-79
2021/03/12 09:27:00;;;;;;;17.73;3.60;;;;;;;;;;4362564;32;20150;-80
2021/03/12 09:30:06;;;;;;;20.10;4.30;;;;;;;;;;4358200;33;20166;-80
2021/03/12 09:32:40;;;;;;;25.83;3.97;;;;;;;;;;4359071;32;20197;-80
2021/03/12 09:35:24;;;;;;;19.50;3.93;;;;;;;;;;4358437;33;20267;-80
2021/03/12 09:37:50;;;;;;;16.27;3.47;;;;;;;;;;4359907;32;20214;-79
2021/03/12 09:40:35;;;;;;;16.03;3.63;;;;;;;;;;4358608;33;20602;-78
2021/03/12 09:43:02;;;;;;;20.83;3.47;;;;;;;;;;4359675;32;20166;-77
2021/03/12 09:45:27;;;;;;;12.67;2.40;;;;;;;;;;4358472;33;20185;-79
2021/03/12 09:47:53;;;;;;;14.30;2.83;;;;;;;;;;4358494;32;20147;-79
2021/03/12 09:50:22;;;;;;;11.83;2.33;;;;;;;;;;4349347;33;20155;-76
2021/03/12 09:52:48;;;;;;;10.37;2.00;;;;;;;;;;4345986;33;20212;-76
2021/03/12 09:55:14;;;;;;;17.50;3.40;;;;;;;;;;4346168;33;20193;-77
2021/03/12 09:57:41;;;;;;;24.87;3.90;;;;;;;;;;4345385;33;20596;-76
2021/03/12 10:00:07;;;;;;;16.60;3.13;;;;;;;;;;4344959;33;20178;-76
2021/03/12 10:02:33;;;;;;;18.93;4.10;;;;;;;;;;4358220;33;20139;-75
2021/03/12 10:05:00;;;;;;;17.70;3.60;;;;;;;;;;4345545;33;20497;-75
2021/03/12 10:07:37;;;;;;;20.07;4.13;;;;;;;;;;4359778;33;20135;-76
2021/03/12 10:10:13;;;;;;;21.63;4.17;;;;;;;;;;4345606;33;20496;-76
2021/03/12 10:12:42;;;;;;;18.23;3.13;;;;;;;;;;4345355;33;20530;-76
2021/03/12 10:15:09;;;;;;;17.57;3.83;;;;;;;;;;4355669;33;20147;-75
2021/03/12 10:17:39;;;;;;;14.90;3.00;;;;;;;;;;4345281;33;20160;-77
2021/03/12 10:20:14;;;;;;;15.57;3.23;;;;;;;;;;4345115;33;20171;-76
2021/03/12 10:22:43;;;;;;;14.97;3.30;;;;;;;;;;4345535;33;20150;-76
2021/03/12 10:25:27;;;;;;;11.00;2.30;;;;;;;;;;4344910;33;20171;-76
2021/03/12 10:28:40;;;;;;;;;;;;;;;;;;;;;
2021/03/12 10:31:06;;;;;;;14.30;3.07;;;;;;;;;;4364375;32;20177;-75
2021/03/12 10:33:35;;;;;;;11.93;2.63;;;;;;;;;;4375959;32;20146;-76
2021/03/12 10:36:10;;;;;;;15.60;2.73;;;;;;;;;;4362508;32;20552;-76
2021/03/12 10:38:35;;;;;;;17.93;3.37;;;;;;;;;;4362455;32;20286;-76
2021/03/12 10:41:05;;;;;;;14.00;3.23;;;;;;;;;;4370029;32;20177;-76
2021/03/12 10:43:34;;;;;;;14.87;2.85;;;;;;;;;;4367671;32;20241;-76
2021/03/12 10:46:09;;;;;;;10.40;2.60;;;;;;;;;;4375928;32;20146;-76
2021/03/12 10:48:48;;;;;;;13.37;2.63;;;;;;;;;;4376609;32;20126;-76
2021/03/12 10:54:12;;;;;;;13.07;2.60;;;;;;;;;;4359435;32;20462;-77
2021/03/12 10:57:02;;;;;;;16.50;4.30;;;;;;;;;;4364165;32;20166;-76
2021/03/12 10:59:30;;;;;;;13.47;4.10;;;;;;;;;;4363533;32;20221;-78
2021/03/12 11:01:58;;;;;;;17.50;3.60;;;;;;;;;;4358559;32;20512;-77
2021/03/12 11:04:23;;;;;;;15.70;3.20;;;;;;;;;;4369001;32;20220;-76
2021/03/12 11:06:48;;;;;;;12.70;3.47;;;;;;;;;;4361943;32;20638;-77
2021/03/12 11:09:14;;;;;;;14.25;3.03;;;;;;;;;;4364056;32;20179;-77
2021/03/12 11:11:44;;;;;;;18.70;3.60;;;;;;;;;;4363418;32;20159;-77
2021/03/12 11:14:18;;;;;;;22.50;3.53;;;;;;;;;;4362861;32;20233;-76
2021/03/12 11:16:51;;;;;;;18.40;3.47;;;;;;;;;;4362661;32;20219;-77
2021/03/12 11:19:19;;;;;;;20.43;4.30;;;;;;;;;;4373016;32;20178;-76
2021/03/12 11:21:48;;;;;;;11.23;2.93;;;;;;;;;;4362130;32;20151;-77
2021/03/12 11:24:13;;;;;;;12.73;3.60;;;;;;;;;;4360565;32;20190;-76
2021/03/12 11:26:40;;;;;;;19.03;4.10;;;;;;;;;;4375727;32;20143;-75
2021/03/12 11:29:07;;;;;;;21.80;3.53;;;;;;;;;;4362092;32;20193;-75
2021/03/12 11:31:33;;;;;;;16.40;3.70;;;;;;;;;;4376100;32;20194;-77
2021/03/12 11:33:58;;;;;;;16.23;3.20;;;;;;;;;;4374299;32;20146;-76
2021/03/12 11:36:26;;;;;;;17.10;3.63;;;;;;;;;;4358258;32;20405;-76
2021/03/12 11:38:52;;;;;;;15.53;4.03;;;;;;;;;;4375737;32;20220;-76
2021/03/12 11:41:17;;;;;;;13.43;3.53;;;;;;;;;;4361509;32;20591;-76
2021/03/12 11:43:45;;;;;;;16.90;3.83;;;;;;;;;;4366820;32;20267;-76
2021/03/12 11:46:15;;;;;;;17.85;3.85;;;;;;;;;;4376509;32;20196;-76
2021/03/12 11:48:41;;;;;;;17.40;3.58;;;;;;;;;;4374401;32;20190;-75
2021/03/12 11:51:14;;;;;;;13.83;3.60;;;;;;;;;;4374941;32;20147;-77
2021/03/12 11:53:41;;;;;;;14.25;3.60;;;;;;;;;;4362321;32;20158;-77
2021/03/12 11:56:07;;;;;;;12.57;3.40;;;;;;;;;;4359831;32;20166;-77
2021/03/12 11:58:35;;;;;;;16.00;3.53;;;;;;;;;;4375065;32;20146;-76
2021/03/12 12:01:00;;;;;;;19.77;3.92;;;;;;;;;;4380486;32;20158;-77
2021/03/12 12:03:25;;;;;;;11.93;2.87;;;;;;;;;;4381614;32;20146;-76
2021/03/12 12:05:51;;;;;;;15.03;3.83;;;;;;;;;;4361069;32;20548;-76
2021/03/12 12:08:16;;;;;;;13.57;4.07;;;;;;;;;;4361663;32;20159;-76
2021/03/12 12:10:41;;;;;;;12.47;3.50;;;;;;;;;;4361188;32;20159;-77
2021/03/12 12:13:10;;;;;;;14.18;3.30;;;;;;;;;;4361452;32;20216;-76
2021/03/12 12:15:35;;;;;;;14.17;3.33;;;;;;;;;;4361431;32;20563;-77
2021/03/12 12:18:02;;;;;;;11.30;3.40;;;;;;;;;;4374628;32;20194;-78
2021/03/12 12:20:28;;;;;;;9.53;3.07;;;;;;;;;;4377117;32;20139;-78
2021/03/12 12:22:54;;;;;;;9.47;2.93;;;;;;;;;;4376010;32;20241;-78
2021/03/12 12:25:37;;;;;;;11.90;2.93;;;;;;;;;;4375400;32;20196;-77
2021/03/12 12:28:04;;;;;;;8.13;2.83;;;;;;;;;;4373535;32;20449;-78
2021/03/12 12:30:30;;;;;;;13.97;3.53;;;;;;;;;;4359003;32;20175;-77
2021/03/12 12:32:55;;;;;;;14.80;4.00;;;;;;;;;;4360884;32;20261;-77
2021/03/12 12:35:20;;;;;;;17.83;3.80;;;;;;;;;;4360880;32;20186;-77
2021/03/12 12:37:46;;;;;;;17.73;4.40;;;;;;;;;;4359689;32;20499;-78
2021/03/12 12:40:12;;;;;;;15.10;3.77;;;;;;;;;;4346126;33;20159;-77
2021/03/12 12:42:38;;;;;;;18.03;4.07;;;;;;;;;;4346213;33;20170;-78
2021/03/12 12:45:04;;;;;;;12.87;3.67;;;;;;;;;;4345713;33;20225;-77
2021/03/12 12:47:29;;;;;;;12.07;2.80;;;;;;;;;;4359219;32;20235;-76
2021/03/12 12:49:54;;;;;;;10.83;3.07;;;;;;;;;;4346354;33;20159;-75
2021/03/12 12:52:19;;;;;;;15.10;3.00;;;;;;;;;;4356274;32;20139;-77
2021/03/12 12:54:48;;;;;;;16.70;3.47;;;;;;;;;;4331194;33;20159;-77
2021/03/12 12:57:16;;;;;;;17.40;4.07;;;;;;;;;;4344655;33;20143;-76
2021/03/12 12:59:41;;;;;;;16.97;4.90;;;;;;;;;;4331687;33;20635;-78
2021/03/12 13:02:06;;;;;;;18.47;5.67;;;;;;;;;;4331093;33;20186;-77
2021/03/12 13:04:32;;;;;;;15.67;4.93;;;;;;;;;;4335548;33;20156;-76
2021/03/12 13:06:57;;;;;;;14.70;4.70;;;;;;;;;;4359276;33;20144;-77
2021/03/12 13:09:22;;;;;;;19.60;5.47;;;;;;;;;;4345981;33;20719;-78
2021/03/12 13:11:47;;;;;;;16.53;4.30;;;;;;;;;;4345950;33;20592;-77
2021/03/12 13:14:16;;;;;;;18.67;4.40;;;;;;;;;;4359952;32;20818;-76
2021/03/12 13:16:41;;;;;;;13.20;3.73;;;;;;;;;;4371967;32;20167;-76
2021/03/12 13:19:06;;;;;;;9.37;3.30;;;;;;;;;;4358876;32;20151;-76
2021/03/12 13:21:32;;;;;;;9.50;2.33;;;;;;;;;;4358979;32;20170;-77
2021/03/12 13:23:57;;;;;;;12.40;2.93;;;;;;;;;;4345377;33;20613;-75
2021/03/12 13:26:32;;;;;;;10.87;3.00;;;;;;;;;;4360079;32;20639;-77
2021/03/12 13:28:57;;;;;;;10.07;3.00;;;;;;;;;;4351357;32;20585;-75
2021/03/12 13:31:22;;;;;;;10.30;3.50;;;;;;;;;;4369091;32;20233;-76
2021/03/12 13:33:49;;;;;;;14.53;3.20;;;;;;;;;;4360429;32;20193;-76
2021/03/12 13:36:14;;;;;;;12.83;3.43;;;;;;;;;;4373868;32;20186;-75
2021/03/12 13:38:39;;;;;;;13.13;2.73;;;;;;;;;;4365907;32;20158;-76
2021/03/12 13:41:05;;;;;;;10.47;3.03;;;;;;;;;;4374139;32;20165;-77
2021/03/12 13:43:30;;;;;;;9.27;2.70;;;;;;;;;;4374162;32;20150;-76
2021/03/12 13:45:59;;;;;;;9.90;2.67;;;;;;;;;;4374268;32;20135;-77
2021/03/12 13:48:24;;;;;;;11.20;2.10;;;;;;;;;;4373842;32;20139;-77
2021/03/12 13:50:50;;;;;;;8.07;1.90;;;;;;;;;;4373209;32;20166;-78
2021/03/12 13:53:15;;;;;;;6.20;1.77;;;;;;;;;;4360048;32;20212;-77
2021/03/12 13:55:41;;;;;;;10.90;2.60;;;;;;;;;;4373929;32;20613;-76
2021/03/12 13:58:10;;;;;;;9.77;2.33;;;;;;;;;;4360023;32;20201;-77
2021/03/12 14:00:36;;;;;;;8.97;2.00;;;;;;;;;;4376570;32;20572;-76
2021/03/12 14:03:01;;;;;;;9.03;2.03;;;;;;;;;;4362963;32;20166;-76
2021/03/12 14:05:27;;;;;;;3.87;1.40;;;;;;;;;;4363279;32;20233;-77
2021/03/12 14:07:52;;;;;;;7.97;1.53;;;;;;;;;;4363045;32;20168;-76
2021/03/12 14:10:18;;;;;;;6.23;1.97;;;;;;;;;;4389031;32;20186;-77
2021/03/12 14:12:43;;;;;;;7.03;1.57;;;;;;;;;;4377913;32;20264;-76
2021/03/12 14:15:09;;;;;;;6.27;1.60;;;;;;;;;;4377897;32;20231;-76
2021/03/12 14:17:34;;;;;;;5.27;1.60;;;;;;;;;;4377862;32;20155;-76
2021/03/12 14:19:59;;;;;;;7.23;1.63;;;;;;;;;;4364164;32;20163;-77
2021/03/12 14:22:31;;;;;;;4.10;0.90;;;;;;;;;;4376790;32;20639;-76
2021/03/12 14:24:57;;;;;;;2.80;0.90;;;;;;;;;;4363180;32;20185;-76
2021/03/12 14:27:35;;;;;;;4.70;1.30;;;;;;;;;;4360421;32;20504;-76
2021/03/12 14:30:00;;;;;;;11.37;1.40;;;;;;;;;;4354085;32;20587;-77
2021/03/12 14:32:29;;;;;;;6.17;1.20;;;;;;;;;;4362646;32;20213;-78
2021/03/12 14:35:00;;;;;;;7.93;1.13;;;;;;;;;;4362885;32;20181;-77
2021/03/12 14:37:27;;;;;;;4.47;1.73;;;;;;;;;;4376697;32;20138;-77
2021/03/12 14:39:52;;;;;;;4.80;1.27;;;;;;;;;;4362661;32;20146;-76
2021/03/12 14:42:27;;;;;;;6.85;1.25;;;;;;;;;;4376240;32;20605;-77
2021/03/12 14:45:03;;;;;;;6.13;1.27;;;;;;;;;;4362796;32;20166;-78
2021/03/12 14:47:38;;;;;;;8.67;1.20;;;;;;;;;;4363008;32;20154;-77
2021/03/12 14:50:04;;;;;;;7.80;1.50;;;;;;;;;;4376488;32;20127;-77
2021/03/12 14:52:32;;;;;;;4.10;1.37;;;;;;;;;;4375926;32;20173;-76
2021/03/12 14:54:57;;;;;;;6.85;1.50;;;;;;;;;;4363524;32;20441;-77
2021/03/12 14:57:23;;;;;;;6.45;1.40;;;;;;;;;;4361376;32;20277;-76
2021/03/12 14:59:59;;;;;;;6.10;1.50;;;;;;;;;;4376296;32;20252;-77
2021/03/12 15:02:51;;;;;;;6.10;1.40;;;;;;;;;;4300838;33;20472;-78
2021/03/12 15:05:23;;;;;;;3.83;1.15;;;;;;;;;;4304513;32;20169;-78
2021/03/12 15:07:48;;;;;;;9.52;1.85;;;;;;;;;;4362818;32;20159;-78
2021/03/12 15:10:19;;;;;;;10.10;1.60;;;;;;;;;;4375729;32;20134;-78
2021/03/12 15:12:44;;;;;;;9.38;1.80;;;;;;;;;;4374519;32;20187;-79
2021/03/12 15:15:10;;;;;;;7.07;1.37;;;;;;;;;;4359070;32;20159;-78
2021/03/12 15:17:42;;;;;;;11.07;1.80;;;;;;;;;;4368039;32;20150;-79
2021/03/12 15:22:56;;;;;;;12.73;2.35;;;;;;;;;;4359607;32;20233;-76
2021/03/12 15:25:30;;;;;;;8.15;1.85;;;;;;;;;;4355095;32;20194;-77
2021/03/12 15:27:55;;;;;;;16.70;2.15;;;;;;;;;;4359907;32;20162;-77
2021/03/12 15:30:23;;;;;;;13.55;2.25;;;;;;;;;;4359152;32;20240;-78
2021/03/12 15:32:54;;;;;;;10.73;2.58;;;;;;;;;;4360438;32;20143;-77
2021/03/12 15:35:26;;;;;;;13.70;2.70;;;;;;;;;;4347048;33;20154;-79
2021/03/12 15:37:52;;;;;;;13.25;2.40;;;;;;;;;;4360308;32;20178;-76
2021/03/12 15:40:33;;;;;;;12.95;2.50;;;;;;;;;;4360420;32;20593;-77
2021/03/12 15:42:58;;;;;;;14.33;1.93;;;;;;;;;;4339465;33;20155;-79
2021/03/12 15:45:24;;;;;;;14.60;2.42;;;;;;;;;;4343071;33;20206;-78
2021/03/12 15:47:49;;;;;;;12.93;2.10;;;;;;;;;;4346778;33;20147;-75
2021/03/12 15:50:25;;;;;;;13.55;2.50;;;;;;;;;;4347028;33;20505;-76
2021/03/12 15:52:51;;;;;;;15.23;2.20;;;;;;;;;;4355727;33;20277;-76
2021/03/12 15:55:16;;;;;;;12.95;2.15;;;;;;;;;;4346326;33;20516;-78
2021/03/12 15:57:42;;;;;;;14.50;2.63;;;;;;;;;;4346808;33;20556;-78
2021/03/12 16:00:09;;;;;;;13.18;2.15;;;;;;;;;;4346721;33;20508;-79
2021/03/12 16:02:39;;;;;;;20.30;2.97;;;;;;;;;;4347164;33;20228;-77
2021/03/12 16:05:08;;;;;;;14.37;3.50;;;;;;;;;;4360755;32;20158;-77
2021/03/12 16:07:36;;;;;;;13.52;2.45;;;;;;;;;;4347175;33;20151;-77
2021/03/12 16:10:03;;;;;;;22.00;3.00;;;;;;;;;;4346574;33;20191;-77
2021/03/12 16:12:39;;;;;;;19.73;3.12;;;;;;;;;;4347590;33;20189;-77
2021/03/12 16:15:05;;;;;;;18.97;3.00;;;;;;;;;;4360717;32;20131;-79
2021/03/12 16:17:30;;;;;;;14.43;2.90;;;;;;;;;;4361157;32;20148;-78
2021/03/12 16:19:56;;;;;;;17.53;2.60;;;;;;;;;;4346462;33;20193;-78
2021/03/12 16:22:31;;;;;;;;;;;;;;;;;;;;;
2021/03/12 16:24:57;;;;;;;18.60;2.80;;;;;;;;;;4360978;32;20147;-78
2021/03/12 16:27:23;;;;;;;19.17;3.23;;;;;;;;;;4346613;33;20152;-77
2021/03/12 16:29:48;;;;;;;17.37;2.60;;;;;;;;;;4363472;32;20491;-78
2021/03/12 16:32:15;;;;;;;22.90;2.90;;;;;;;;;;4360706;32;20156;-78
2021/03/12 16:34:43;;;;;;;19.60;4.83;;;;;;;;;;4361293;32;20162;-78
2021/03/12 16:37:08;;;;;;;22.20;3.13;;;;;;;;;;4360966;32;20213;-76
2021/03/12 16:39:37;;;;;;;18.93;2.80;;;;;;;;;;4374713;32;20158;-78
2021/03/12 16:42:02;;;;;;;18.03;2.83;;;;;;;;;;4373207;32;20170;-77
2021/03/12 16:44:31;;;;;;;17.95;2.65;;;;;;;;;;4367364;32;20602;-78
2021/03/12 16:46:59;;;;;;;19.63;3.00;;;;;;;;;;4357680;33;20238;-78
2021/03/12 16:49:29;;;;;;;14.10;3.00;;;;;;;;;;4373867;32;20486;-79
2021/03/12 16:51:55;;;;;;;15.63;2.70;;;;;;;;;;4360381;32;20276;-78
2021/03/12 16:54:20;;;;;;;12.63;1.90;;;;;;;;;;4345510;33;20225;-78
2021/03/12 16:56:48;;;;;;;15.43;2.93;;;;;;;;;;4344423;33;20298;-78
2021/03/12 16:59:14;;;;;;;13.10;2.67;;;;;;;;;;4346726;32;21088;-78
2021/03/12 17:01:49;;;;;;;10.40;2.30;;;;;;;;;;4360800;32;20201;-77
2021/03/12 17:04:20;;;;;;;14.67;2.87;;;;;;;;;;4360677;32;20617;-77
2021/03/12 17:06:49;;;;;;;15.07;2.60;;;;;;;;;;4361102;32;20629;-77
2021/03/12 17:09:21;;;;;;;19.03;3.60;;;;;;;;;;4360342;32;20158;-78
2021/03/12 17:11:46;;;;;;;18.23;2.80;;;;;;;;;;4361043;32;20169;-76
2021/03/12 17:14:12;;;;;;;21.10;3.43;;;;;;;;;;4360545;32;20155;-77
2021/03/12 17:16:37;;;;;;;16.00;2.93;;;;;;;;;;4360424;32;20163;-78
2021/03/12 17:19:03;;;;;;;21.67;3.80;;;;;;;;;;4359686;32;20185;-77
2021/03/12 17:21:29;;;;;;;19.83;3.30;;;;;;;;;;4360643;32;20178;-77
2021/03/12 17:23:54;;;;;;;14.73;3.20;;;;;;;;;;4360199;32;20151;-77
2021/03/12 17:26:22;;;;;;;20.90;3.97;;;;;;;;;;4373532;32;20139;-77
2021/03/12 17:29:01;;;;;;;15.37;3.43;;;;;;;;;;4360110;32;20626;-77
2021/03/12 17:31:36;;;;;;;25.63;4.13;;;;;;;;;;4360672;32;20491;-78
2021/03/12 17:34:09;;;;;;;16.70;3.27;;;;;;;;;;4360739;32;20267;-79
2021/03/12 17:36:37;;;;;;;18.87;3.07;;;;;;;;;;4361286;32;20151;-79
2021/03/12 17:39:23;;;;;;;;;;;;;;;;;;;;;
2021/03/12 17:45:28;;;;;;;21.27;3.23;;;;;;;;;;4342391;33;20230;-77
2021/03/12 17:47:56;;;;;;;20.40;3.00;;;;;;;;;;4359401;32;20155;-78
2021/03/12 17:50:54;;;;;;;16.10;2.97;;;;;;;;;;4360135;32;20315;-77
2021/03/12 17:53:44;;;;;;;18.50;3.13;;;;;;;;;;4356600;32;20151;-78
2021/03/12 17:56:09;;;;;;;18.97;3.27;;;;;;;;;;4364577;32;20597;-79
2021/03/12 17:58:35;;;;;;;19.80;3.33;;;;;;;;;;4360602;32;20583;-80
2021/03/12 18:01:00;;;;;;;19.43;3.03;;;;;;;;;;4361073;32;20182;-78
2021/03/12 18:03:25;;;;;;;15.43;2.47;;;;;;;;;;4360783;32;20225;-79
2021/03/12 18:05:51;;;;;;;14.40;3.00;;;;;;;;;;4348835;33;20672;-78
2021/03/12 18:08:42;;;;;;;16.33;3.20;;;;;;;;;;4345908;33;20201;-79
2021/03/12 18:11:19;;;;;;;17.73;2.63;;;;;;;;;;4346423;33;20250;-78
2021/03/12 18:16:35;;;;;;;19.53;3.23;;;;;;;;;;4359476;33;20177;-78
2021/03/12 18:19:47;;;;;;;22.47;4.27;;;;;;;;;;4346048;33;20197;-78
2021/03/12 18:22:12;;;;;;;28.67;4.40;;;;;;;;;;4345847;33;20238;-78
2021/03/12 18:24:40;;;;;;;26.13;4.10;;;;;;;;;;4346062;33;20151;-78
2021/03/12 18:27:06;;;;;;;23.77;3.43;;;;;;;;;;4345498;33;20151;-78
2021/03/12 18:29:40;;;;;;;28.07;4.80;;;;;;;;;;4345700;33;20269;-78
2021/03/12 18:32:08;;;;;;;22.87;4.10;;;;;;;;;;4343801;33;20660;-78
2021/03/12 18:34:34;;;;;;;34.20;4.33;;;;;;;;;;4345855;33;20178;-78
2021/03/12 18:36:59;;;;;;;20.80;3.57;;;;;;;;;;4361124;32;21985;-78
2021/03/12 18:39:24;;;;;;;21.77;3.77;;;;;;;;;;4372790;32;20158;-78
2021/03/12 18:41:50;;;;;;;15.40;3.37;;;;;;;;;;4373659;32;20162;-79
2021/03/12 18:44:17;;;;;;;24.10;4.17;;;;;;;;;;4372917;32;20155;-80
2021/03/12 18:46:45;;;;;;;23.77;4.10;;;;;;;;;;4376655;32;20154;-79
2021/03/12 18:49:12;;;;;;;19.80;3.90;;;;;;;;;;4363036;32;20587;-80
2021/03/12 18:51:37;;;;;;;27.23;4.47;;;;;;;;;;4363743;32;20170;-79
2021/03/12 18:54:03;;;;;;;30.40;4.03;;;;;;;;;;4363448;32;20238;-80
2021/03/12 18:56:28;;;;;;;26.85;3.72;;;;;;;;;;4363198;32;20653;-80
2021/03/12 18:59:01;;;;;;;23.80;4.40;;;;;;;;;;4363286;32;20214;-79